createdAt,value
2018-04-22T00:19:39.110Z,9.60
2018-04-22T00:22:07.681Z,9.80
2018-04-22T00:24:35.950Z,10.07
2018-04-22T00:27:04.258Z,11.10
2018-04-22T00:29:32.694Z,11.40
2018-04-22T00:32:01.728Z,11.30
2018-04-22T00:34:30.018Z,13.10
2018-04-22T00:36:58.422Z,11.50
2018-04-22T00:39:27.483Z,11.07
2018-04-22T00:41:55.750Z,11.20
2018-04-22T00:44:24.051Z,11.03
2018-04-22T00:46:52.313Z,11.33
2018-04-22T00:49:20.659Z,10.63
2018-04-22T01:09:52.093Z,10.07
2018-04-22T01:12:20.419Z,9.63
2018-04-22T01:14:48.655Z,9.87
2018-04-22T01:17:17.164Z,10.53
2018-04-22T01:37:46.747Z,10.87
2018-04-22T01:40:16.203Z,10.23
2018-04-22T02:00:48.952Z,9.97
2018-04-22T02:03:18.055Z,10.60
2018-04-22T02:05:46.347Z,10.53
2018-04-22T02:08:14.585Z,10.80
2018-04-22T02:10:43.903Z,10.47
2018-04-22T02:13:12.972Z,11.03
2018-04-22T02:15:41.243Z,11.07
2018-04-22T02:18:09.606Z,11.03
2018-04-22T02:20:37.897Z,10.87
2018-04-22T02:23:06.188Z,10.87
2018-04-22T02:43:38.307Z,11.73
2018-04-22T02:46:06.618Z,11.43
2018-04-22T02:48:34.915Z,11.53
2018-04-22T02:51:03.430Z,12.30
2018-04-22T02:53:31.710Z,11.83
2018-04-22T03:14:02.406Z,11.93
2018-04-22T03:16:30.719Z,12.07
2018-04-22T03:18:59.064Z,11.63
2018-04-22T03:21:28.223Z,12.00
2018-04-22T03:23:56.509Z,12.13
2018-04-22T03:44:27.378Z,11.37
2018-04-22T03:46:55.617Z,11.57
2018-04-22T03:49:23.906Z,11.63
2018-04-22T03:51:52.223Z,10.80
2018-04-22T04:12:23.176Z,10.50
2018-04-22T04:14:51.803Z,10.83
2018-04-22T04:17:20.098Z,10.17
2018-04-22T04:20:01.626Z,11.10
2018-04-22T04:22:41.658Z,10.57
2018-04-22T04:28:08.944Z,9.80
2018-04-22T04:30:37.255Z,12.67
2018-04-22T04:33:06.326Z,12.37
2018-04-22T04:35:34.602Z,11.77
2018-04-22T04:38:02.910Z,12.67
2018-04-22T04:40:31.958Z,12.33
2018-04-22T04:43:00.389Z,10.70
2018-04-22T04:45:28.728Z,13.10
2018-04-22T04:47:57.039Z,12.37
2018-04-22T04:50:26.094Z,12.40
2018-04-22T04:52:54.452Z,11.90
2018-04-22T04:55:22.746Z,11.80
2018-04-22T04:57:51.043Z,12.70
2018-04-22T05:00:19.598Z,12.43
2018-04-22T05:02:48.735Z,12.40
2018-04-22T05:05:17.067Z,12.10
2018-04-22T05:07:46.173Z,12.03
2018-04-22T05:10:15.209Z,11.97
2018-04-22T05:12:43.542Z,12.10
2018-04-22T05:15:11.968Z,12.43
2018-04-22T05:17:40.255Z,12.57
2018-04-22T05:20:08.561Z,11.47
2018-04-22T05:22:37.067Z,11.70
2018-04-22T05:25:05.348Z,11.57
2018-04-22T05:27:33.643Z,11.43
2018-04-22T05:30:02.835Z,12.53
2018-04-22T05:32:31.874Z,11.47
2018-04-22T05:35:00.197Z,12.30
2018-04-22T05:37:28.515Z,11.37
2018-04-22T05:39:56.796Z,11.30
2018-04-22T05:42:25.080Z,12.00
2018-04-22T05:44:53.787Z,10.83
2018-04-22T05:47:22.075Z,11.17
2018-04-22T05:49:50.455Z,10.93
2018-04-22T06:10:22.318Z,11.10
2018-04-22T06:12:50.602Z,10.87
2018-04-22T06:15:19.118Z,11.90
2018-04-22T06:17:47.655Z,10.93
2018-04-22T06:38:18.515Z,14.13
2018-04-22T06:40:46.859Z,13.67
2018-04-22T06:43:15.096Z,13.30
2018-04-22T06:45:43.390Z,13.93
2018-04-22T06:48:11.941Z,13.07
2018-04-22T07:08:45.237Z,13.70
2018-04-22T07:11:14.561Z,13.90
2018-04-22T07:13:43.653Z,12.70
2018-04-22T07:16:11.928Z,12.00
2018-04-22T07:18:40.192Z,12.93
2018-04-22T07:21:08.487Z,11.80
2018-04-22T07:23:36.757Z,12.43
2018-04-22T07:26:05.075Z,12.37
2018-04-22T07:28:33.355Z,12.00
2018-04-22T07:31:01.635Z,12.17
2018-04-22T07:51:32.886Z,13.40
2018-04-22T07:54:01.931Z,12.00
2018-04-22T07:56:30.165Z,13.30
2018-04-22T07:58:59.213Z,13.07
2018-04-22T08:01:27.506Z,13.50
2018-04-22T08:03:55.741Z,13.23
2018-04-22T08:06:24.245Z,12.60
2018-04-22T08:08:52.528Z,12.20
2018-04-22T08:11:20.808Z,11.70
2018-04-22T08:13:49.319Z,11.03
2018-04-22T08:16:17.568Z,11.87
2018-04-22T08:18:45.859Z,11.50
2018-04-22T08:21:14.120Z,11.10
2018-04-22T08:23:42.443Z,11.73
2018-04-22T08:26:10.712Z,10.83
2018-04-22T08:28:39.003Z,10.47
2018-04-22T08:31:07.293Z,10.57
2018-04-22T08:33:35.614Z,10.20
2018-04-22T08:36:04.954Z,10.33
2018-04-22T08:38:33.271Z,10.00
2018-04-22T08:41:02.357Z,10.07
2018-04-22T08:43:30.637Z,9.40
2018-04-22T08:45:59.039Z,8.80
2018-04-22T08:48:27.317Z,9.00
2018-04-22T08:50:55.815Z,8.23
2018-04-22T08:53:24.082Z,7.83
2018-04-22T08:55:52.374Z,7.53
2018-04-22T08:58:20.858Z,7.70
2018-04-22T09:00:49.857Z,7.67
2018-04-22T09:03:18.897Z,7.43
2018-04-22T09:05:47.161Z,7.53
2018-04-22T09:08:15.466Z,7.10
2018-04-22T09:10:43.689Z,6.87
2018-04-22T09:13:12.764Z,8.70
2018-04-22T09:15:41.017Z,6.93
2018-04-22T09:18:09.281Z,6.40
2018-04-22T09:20:37.803Z,6.90
2018-04-22T09:23:06.089Z,5.93
2018-04-22T09:25:34.348Z,6.50
2018-04-22T09:28:02.781Z,5.77
2018-04-22T09:30:32.545Z,6.10
2018-04-22T09:33:00.851Z,7.67
2018-04-22T09:35:29.328Z,4.70
2018-04-22T09:37:57.562Z,4.80
2018-04-22T09:40:25.837Z,4.27
2018-04-22T09:42:54.281Z,4.20
2018-04-22T09:45:22.546Z,4.53
2018-04-22T09:47:50.892Z,4.13
2018-04-22T09:50:19.398Z,5.90
2018-04-22T09:52:47.699Z,5.27
2018-04-22T09:55:15.959Z,4.30
2018-04-22T09:57:44.567Z,4.03
2018-04-22T10:00:18.505Z,4.30
2018-04-22T10:02:48.803Z,5.53
2018-04-22T10:05:23.591Z,4.50
2018-04-22T10:25:55.945Z,4.40
2018-04-22T10:28:24.331Z,4.17
2018-04-22T10:48:56.363Z,4.70
2018-04-22T10:51:24.595Z,4.23
2018-04-22T10:53:53.633Z,4.30
2018-04-22T10:56:22.257Z,4.20
2018-04-22T11:16:55.096Z,4.20
2018-04-22T11:19:23.393Z,3.87
2018-04-22T11:21:51.859Z,4.53
2018-04-22T11:24:20.114Z,3.93
2018-04-22T11:26:49.319Z,4.10
2018-04-22T11:47:22.331Z,4.70
2018-04-22T11:49:50.818Z,4.53
2018-04-22T11:52:19.094Z,4.27
2018-04-22T11:54:47.391Z,4.13
2018-04-22T11:57:15.714Z,4.30
2018-04-22T11:59:44.008Z,4.30
2018-04-22T12:02:12.265Z,4.53
2018-04-22T12:04:40.694Z,4.43
2018-04-22T12:07:08.960Z,4.50
2018-04-22T12:27:40.229Z,4.70
2018-04-22T12:30:08.461Z,4.77
2018-04-22T12:32:37.518Z,4.47
2018-04-22T12:35:06.014Z,4.60
2018-04-22T12:55:36.798Z,4.20
2018-04-22T12:58:05.849Z,5.07
2018-04-22T13:00:35.566Z,5.10
2018-04-22T13:21:07.778Z,4.40
2018-04-22T13:41:41.345Z,4.03
2018-04-22T13:44:09.850Z,4.60
2018-04-22T13:46:38.146Z,4.13
2018-04-22T14:07:10.155Z,4.40
2018-04-22T14:09:38.444Z,3.70
2018-04-22T14:30:11.081Z,3.87
2018-04-22T14:32:40.115Z,3.70
2018-04-22T14:35:08.443Z,3.60
2018-04-22T14:37:37.011Z,3.87
2018-04-22T14:58:07.882Z,3.97
2018-04-22T15:00:36.192Z,3.83
2018-04-22T15:03:04.454Z,3.70
2018-04-22T15:05:33.490Z,3.77
2018-04-22T15:26:05.957Z,4.43
2018-04-22T15:28:34.281Z,4.23
2018-04-22T15:49:06.985Z,3.90
2018-04-22T15:51:35.223Z,3.90
2018-04-22T15:54:03.655Z,4.10
2018-04-22T15:56:32.021Z,3.87
2018-04-22T15:59:00.299Z,4.07
2018-04-22T16:01:28.601Z,3.70
2018-04-22T16:22:00.191Z,4.30
2018-04-22T16:24:28.435Z,3.90
2018-04-22T16:45:00.963Z,4.17
2018-04-22T16:47:29.263Z,4.00
2018-04-22T16:49:57.597Z,4.10
2018-04-22T17:10:29.579Z,3.60
2018-04-22T17:31:02.074Z,4.50
2018-04-22T17:33:30.384Z,4.27
2018-04-22T17:35:58.676Z,4.13
2018-04-22T17:38:26.909Z,5.00
2018-04-22T17:40:55.396Z,4.57
2018-04-22T17:43:23.632Z,4.83
2018-04-22T17:45:52.684Z,4.70
2018-04-22T17:48:21.161Z,4.43
2018-04-22T17:50:49.471Z,4.90
2018-04-22T18:11:23.497Z,4.80
2018-04-22T18:13:51.769Z,5.20
2018-04-22T18:16:20.060Z,5.50
2018-04-22T18:18:48.471Z,7.67
2018-04-22T18:21:16.696Z,6.33
2018-04-22T18:41:48.443Z,4.87
2018-04-22T18:44:17.501Z,5.10
2018-04-22T18:46:45.730Z,5.07
2018-04-22T18:49:15.026Z,5.13
2018-04-22T18:51:43.410Z,4.27
2018-04-22T18:54:12.464Z,4.77
2018-04-22T18:56:41.011Z,4.57
2018-04-22T19:17:14.577Z,4.60
2018-04-22T19:19:43.020Z,4.50
2018-04-22T19:22:12.052Z,5.10
2018-04-22T19:24:40.343Z,4.67
2018-04-22T19:27:08.667Z,5.00
2018-04-22T19:29:37.834Z,4.60
2018-04-22T19:32:06.141Z,5.13
2018-04-22T19:34:34.595Z,4.97
2018-04-22T19:37:02.843Z,5.40
2018-04-22T19:39:31.126Z,5.30
2018-04-22T20:00:02.934Z,5.67
2018-04-22T20:02:31.194Z,6.53
2018-04-22T20:04:59.433Z,6.70
2018-04-22T20:07:27.987Z,5.97
2018-04-22T20:09:56.222Z,6.50
2018-04-22T20:12:24.523Z,5.50
2018-04-22T20:14:52.828Z,6.03
2018-04-22T20:35:25.430Z,5.67
2018-04-22T20:37:53.939Z,5.87
2018-04-22T20:40:22.995Z,5.63
2018-04-22T20:42:51.221Z,6.07
2018-04-22T20:45:20.332Z,6.27
2018-04-22T21:05:51.835Z,5.20
2018-04-22T21:08:20.249Z,5.73
2018-04-22T21:10:48.513Z,5.73
2018-04-22T21:13:16.784Z,6.00
2018-04-22T21:15:45.325Z,5.43
2018-04-22T21:18:14.419Z,6.10
2018-04-22T21:38:48.116Z,5.90
2018-04-22T21:41:16.436Z,5.80
2018-04-22T21:43:45.462Z,5.70
2018-04-22T21:46:13.756Z,5.70
2018-04-22T22:06:45.489Z,5.87
2018-04-22T22:09:14.596Z,5.90
2018-04-22T22:11:43.627Z,6.33
2018-04-22T22:14:11.853Z,5.87
2018-04-22T22:16:40.902Z,5.60
2018-04-22T22:19:09.176Z,4.63
2018-04-22T22:39:43.039Z,5.40
2018-04-22T22:42:11.331Z,5.53
2018-04-22T22:44:39.561Z,5.20
2018-04-22T22:47:08.116Z,5.23
2018-04-22T22:49:37.175Z,5.00
2018-04-22T22:52:05.442Z,5.17
2018-04-22T23:12:36.355Z,4.93
2018-04-22T23:15:04.614Z,4.90
2018-04-22T23:17:32.898Z,5.43
2018-04-22T23:20:01.500Z,5.30
2018-04-22T23:22:29.766Z,5.30
2018-04-22T23:24:58.039Z,5.30
2018-04-22T23:45:29.611Z,5.73
2018-04-22T23:47:57.915Z,6.20
2018-04-22T23:50:26.146Z,6.50
2018-04-22T23:52:54.480Z,6.10
2018-04-22T23:55:22.774Z,6.83
2018-04-22T23:57:52.881Z,6.13
